Skip to main content

NOAA/GLERL Met Station at Chicago, IL

Previous 5 days (top of hour only)
See also Previous 3 Hours (2 minute increments)
Jump down to Data
Switch to [English][Metric]
Zoom: Click and drag, Pan: shift-click and drag, Unzoom: double-click, Unzoom All




Note: Speed = mean wind during 2-minute period at top of hour,
Gust = max wind during 2-minute period at top of hour,
Peak = max wind during entire hour.
• See also 5-day windrose plot


NOAA/GLERL Met Station at Chicago, IL

Previous 5 days (top of hour only)
See also Previous 3 Hours (2 minute increments)
Jump up to Graphs
Switch to [English][Metric]
                  Wind  Wind  Wind   Air   Dew   Rel
                   Spd   Gst   Dir  Temp    Pt   Hum
YYYY-MM-DD   CDT   kts   kts   deg     F     F     %
2017-04-28 16:00  14.4  15.4    54  47.3  44.6  90.2
2017-04-28 15:00   8.6   9.1    73  46.6  43.4  88.4
2017-04-28 14:00   8.2   8.6    51  46.6  43.7  89.4
2017-04-28 13:00  10.1  10.9    90  46.4  41.9  84.2
2017-04-28 12:00   8.6   9.1    90  46.9  41.6  81.4
2017-04-28 11:00   8.2   8.6   101  46.9  40.6  78.4
2017-04-28 10:00   6.0   7.0    97  46.8  40.5  78.6
2017-04-28 09:00   6.2   7.0   118  48.2  39.9  72.7
2017-04-28 08:00   4.3   5.2   147  48.0  38.7  69.8
2017-04-28 07:00   3.3   4.5   185  46.2  37.0  69.8
2017-04-28 06:00   4.1   5.1   301  45.1  36.1  70.3
2017-04-28 05:00   8.6   9.3   314  45.0  37.0  73.4
2017-04-28 04:00   4.5   5.2   313  45.7  39.5  78.6
2017-04-28 03:00   5.8   6.6   262  46.2  40.0  78.6
2017-04-28 02:00   7.2   8.6   269  46.4  39.7  77.2
2017-04-28 01:00   8.2   9.1   237  46.9  39.0  73.6
2017-04-28 00:00   9.9  15.9   236  46.8  37.0  68.6
2017-04-27 23:00  14.4  19.1   249  46.8  36.0  65.8
2017-04-27 22:00  13.0  16.7   239  46.8  35.9  65.5
2017-04-27 21:00  16.9  20.6   240  46.6  35.8  65.7
2017-04-27 20:00  20.2  27.0   247  46.8  37.9  71.0
2017-04-27 19:00  20.2  27.4   251  47.3  38.0  69.8
2017-04-27 18:00  19.8  24.3   235  46.9  37.8  70.2
2017-04-27 17:00  17.5  22.7   243  46.6  38.8  73.9
2017-04-27 16:00  19.4  23.7   243  46.8  39.2  74.8
2017-04-27 15:00  17.7  23.7   235  46.0  38.9  76.0
2017-04-27 14:00  20.4  24.7   232  45.7  38.0  74.2
2017-04-27 13:00  20.4  24.9   251  45.3  37.8  74.6
2017-04-27 12:00  25.5  30.9   230  46.9  38.5  72.1
2017-04-27 11:00  14.2  17.3   242  47.8  40.3  74.8
2017-04-27 10:00  25.7  28.4   249  46.9  41.2  80.1
2017-04-27 09:00  23.5  27.6   251  47.3  43.5  86.4
2017-04-27 08:00  26.8  32.7   236  49.5  46.8  90.3
2017-04-27 07:00  29.9  34.2   188  58.3  56.1  92.4
2017-04-27 06:00  29.4  33.8   186  59.4  55.4  86.6
2017-04-27 05:00  19.8  21.2   192  59.5  56.0  88.0
2017-04-27 04:00  19.8  20.2   181  59.5  57.1  91.5
2017-04-27 03:00  16.1  17.1   166  58.1  58.0  99.8
2017-04-27 02:00  14.6  15.0   143  56.7  56.6  99.8
2017-04-27 01:00  15.0  15.7   147  56.3  56.2  99.7
2017-04-27 00:00  14.0  14.4   136  55.8  55.3  98.3
2017-04-26 23:00   9.5  10.1   147  62.4  59.7  90.6
2017-04-26 22:00   8.6   9.3   179  64.8  59.3  82.3
2017-04-26 21:00   9.5  10.5   270  67.8  57.4  68.9
2017-04-26 20:00  10.7  11.1   283  68.7  58.4  69.2
2017-04-26 19:00   3.3   3.7   287  71.2  56.5  59.1
2017-04-26 18:00  15.6  18.3   220  73.2  53.4  49.4
2017-04-26 17:00  17.3  20.2   213  73.2  54.3  51.0
2017-04-26 16:00  15.6  18.5   213  73.0  54.2  51.2
2017-04-26 15:00  20.0  23.1   215  71.8  55.3  55.6
2017-04-26 14:00  17.3  20.0   233  72.0  54.9  54.5
2017-04-26 13:00  16.5  22.0   233  72.9  56.9  56.8
2017-04-26 12:00  21.6  27.0   218  72.5  57.3  58.3
2017-04-26 11:00  22.2  24.5   198  69.3  57.4  65.6
2017-04-26 10:00  14.2  15.9   161  62.8  55.5  76.8
2017-04-26 09:00  16.7  18.7   160  63.1  55.5  75.9
2017-04-26 08:00  17.1  19.6   158  62.4  55.4  77.5
2017-04-26 07:00  18.1  18.9   175  61.5  55.5  80.5
2017-04-26 06:00   9.9  11.9   156  59.4  55.2  85.8
2017-04-26 05:00  13.4  14.8   160  61.0  55.3  81.4
2017-04-26 04:00  12.4  13.4   160  61.0  54.9  80.2
2017-04-26 03:00  15.4  16.3   156  61.3  54.8  78.7
2017-04-26 02:00  17.1  18.3   151  61.0  54.4  78.7
2017-04-26 01:00  17.3  17.9   146  60.3  53.6  78.4
2017-04-26 00:00  16.7  17.7   151  61.5  53.8  75.5
2017-04-25 23:00  14.0  15.2   142  60.4  52.0  73.5
2017-04-25 22:00  17.9  18.9   137  64.0  52.5  65.7
2017-04-25 21:00  17.9  18.7   134  61.9  51.7  69.0
2017-04-25 20:00  17.3  18.1   133  62.2  50.6  65.4
2017-04-25 19:00  20.0  21.2   133  63.0  50.2  62.6
2017-04-25 18:00  19.2  20.4   125  62.4  49.2  61.5
2017-04-25 17:00  13.8  14.6   104  58.5  47.8  67.4
2017-04-25 16:00  19.1  20.4   101  59.9  47.5  63.2
2017-04-25 15:00  18.3  18.9   109  64.6  47.5  53.4
2017-04-25 14:00  18.7  19.2   125  64.4  47.7  54.1
2017-04-25 13:00  19.8  20.4   125  64.2  49.8  59.0
2017-04-25 12:00  17.9  18.7   140  63.7  51.4  64.0
2017-04-25 11:00  15.9  16.5   145  62.4  51.9  68.1
2017-04-25 10:00  16.1  17.5   167  60.4  52.3  74.2
2017-04-25 09:00  17.3  18.3   172  58.8  52.2  78.3
2017-04-25 08:00  12.6  13.4   161  55.6  51.0  84.5
2017-04-25 07:00  11.5  12.4   170  54.0  50.3  87.4
2017-04-25 06:00  12.1  14.0   165  54.0  49.3  84.2
2017-04-25 05:00   9.7  11.9   158  54.0  47.8  79.5
2017-04-25 04:00   9.3  10.5   144  54.1  46.6  75.4
2017-04-25 03:00   8.6   9.1   147  52.5  44.6  74.2
2017-04-25 02:00   4.3   5.1   185  52.2  44.8  75.8
2017-04-25 01:00   7.4   8.4   141  52.7  43.3  70.0
2017-04-25 00:00  10.1  10.7   138  52.9  43.1  69.0
2017-04-24 23:00  12.4  13.4   122  56.5  40.5  54.7
2017-04-24 22:00  18.7  19.2   119  58.1  38.9  48.4
2017-04-24 21:00  16.9  17.5   105  54.1  40.5  59.7
2017-04-24 20:00  11.5  14.2    82  51.4  39.9  64.3
2017-04-24 19:00   7.0   8.6    33  54.7  35.5  47.9
2017-04-24 18:00   5.2   6.4   331  53.4  38.4  56.3
2017-04-24 17:00   5.4   6.0    12  51.6  40.2  64.8
2017-04-24 16:00   6.0   6.6     2  51.4  41.2  67.8
2017-04-24 15:00   1.4   1.9     2  49.6  44.7  82.9
2017-04-24 14:00   4.5   5.1     6  49.3  45.4  86.4
2017-04-24 13:00   4.1   4.5   356  47.8  44.4  87.6
2017-04-24 12:00   4.1   4.3    47  46.8  43.2  87.2
2017-04-24 11:00   2.9   3.3    26  45.9  42.2  86.9
2017-04-24 10:00   4.9   5.2    45  45.0  41.9  88.8
2017-04-24 09:00   4.3   5.1     9  44.4  41.5  89.4
2017-04-24 08:00   5.2   5.8    24  44.4  41.8  90.4
2017-04-24 07:00   4.5   4.9     5  44.8  41.6  88.5
2017-04-24 06:00   4.5   5.4   340  43.5  41.4  92.1
2017-04-24 05:00   6.8   7.4     7  42.4  40.9  94.3
2017-04-24 04:00   8.6   9.3   359  42.3  40.7  94.2
2017-04-24 03:00   7.6   8.6     2  42.4  40.8  93.7
2017-04-24 02:00   8.2   9.1     1  42.3  40.6  93.7
2017-04-24 01:00  10.1  11.1   354  42.8  41.1  93.6
2017-04-24 00:00   8.2  10.3   349  43.2  41.5  93.7
2017-04-23 23:00  12.4  13.2   352  43.5  41.7  93.3
2017-04-23 22:00  11.1  12.2   356  44.2  42.4  93.3
2017-04-23 21:00  13.8  15.0   353  45.5  43.1  91.2
2017-04-23 20:00   5.4   5.6   166  56.7  26.0  30.3
2017-04-23 19:00   7.6   7.8   163  56.5  33.4  41.3